createdAt,value
2022-09-11T00:22:51.634Z,83.04
2022-09-11T00:25:22.506Z,82.99
2022-09-11T00:27:55.113Z,83.19
2022-09-11T00:30:26.426Z,83.39
2022-09-11T00:32:57.509Z,83.31
2022-09-11T00:35:28.847Z,83.18
2022-09-11T00:37:59.849Z,83.44
2022-09-11T00:40:30.746Z,83.08
2022-09-11T00:43:01.915Z,83.33
2022-09-11T00:45:34.805Z,83.36
2022-09-11T00:48:06.716Z,83.49
2022-09-11T00:50:37.923Z,83.42
2022-09-11T00:53:10.939Z,83.22
2022-09-11T00:55:46.498Z,83.38
2022-09-11T00:58:26.575Z,83.09
2022-09-11T01:00:59.762Z,83.13
2022-09-11T01:03:31.862Z,82.84
2022-09-11T01:06:04.673Z,82.34
2022-09-11T01:08:38.243Z,82.54
2022-09-11T01:11:30.893Z,82.58
2022-09-11T01:14:23.089Z,82.84
2022-09-11T01:17:33.745Z,82.47
2022-09-11T01:20:30.887Z,82.63
2022-09-11T01:23:22.981Z,82.92
2022-09-11T01:25:56.350Z,82.92
2022-09-11T01:28:36.396Z,83.00
2022-09-11T01:31:14.867Z,82.96
2022-09-11T01:33:59.223Z,83.05
2022-09-11T01:36:38.608Z,82.74
2022-09-11T01:39:09.766Z,82.82
2022-09-11T01:42:08.087Z,82.56
2022-09-11T01:44:56.544Z,82.17
2022-09-11T01:47:30.414Z,81.58
2022-09-11T01:50:15.100Z,81.23
2022-09-11T01:53:00.899Z,81.12
2022-09-11T01:55:40.717Z,81.16
2022-09-11T01:58:16.344Z,80.45
2022-09-11T02:00:54.182Z,80.83
2022-09-11T02:03:34.400Z,80.75
2022-09-11T02:06:10.937Z,80.56
2022-09-11T02:08:46.935Z,78.90
2022-09-11T02:11:23.607Z,79.42
2022-09-11T02:14:16.376Z,77.99
2022-09-11T02:17:03.400Z,78.59
2022-09-11T02:19:35.191Z,78.69
2022-09-11T02:22:06.316Z,78.26
2022-09-11T02:24:41.381Z,78.52
2022-09-11T02:27:19.600Z,78.83
2022-09-11T02:29:52.077Z,78.62
2022-09-11T02:32:25.565Z,77.88
2022-09-11T02:35:01.454Z,78.51
2022-09-11T02:37:41.714Z,78.36
2022-09-11T02:40:41.770Z,78.24
2022-09-11T02:43:34.170Z,78.12
2022-09-11T02:46:26.017Z,77.88
2022-09-11T02:49:27.213Z,77.30
2022-09-11T02:52:12.207Z,77.38
2022-09-11T02:55:04.821Z,76.84
2022-09-11T02:57:42.008Z,76.89
2022-09-11T03:00:16.231Z,76.61
2022-09-11T03:02:48.265Z,76.18
2022-09-11T03:05:21.283Z,76.21
2022-09-11T03:07:52.221Z,76.34
2022-09-11T03:10:23.895Z,76.57
2022-09-11T03:12:54.733Z,76.19
2022-09-11T03:15:26.337Z,76.14
2022-09-11T03:17:57.204Z,75.92
2022-09-11T03:20:28.816Z,75.37
2022-09-11T03:22:59.918Z,75.33
2022-09-11T03:25:32.340Z,75.26
2022-09-11T03:28:07.408Z,75.31
2022-09-11T03:30:38.680Z,74.97
2022-09-11T03:33:10.290Z,74.72
2022-09-11T03:35:41.234Z,74.66
2022-09-11T03:38:12.239Z,74.39
2022-09-11T03:40:47.211Z,74.23
2022-09-11T03:43:19.510Z,73.95
2022-09-11T03:45:54.636Z,73.25
2022-09-11T03:48:28.079Z,73.66
2022-09-11T03:50:58.920Z,73.36
2022-09-11T03:53:31.410Z,73.55
2022-09-11T03:56:07.665Z,73.82
2022-09-11T03:58:45.891Z,72.58
2022-09-11T04:01:21.495Z,72.90
2022-09-11T04:03:54.432Z,73.14
2022-09-11T04:06:38.825Z,73.25
2022-09-11T04:09:09.903Z,72.60
2022-09-11T04:11:42.753Z,72.96
2022-09-11T04:14:25.230Z,72.72
2022-09-11T04:16:59.536Z,73.18
2022-09-11T04:19:32.163Z,72.71
2022-09-11T04:22:03.752Z,72.34
2022-09-11T04:24:38.526Z,72.70
2022-09-11T04:27:09.585Z,72.81
2022-09-11T04:29:40.661Z,73.07
2022-09-11T04:32:14.481Z,73.12
2022-09-11T04:34:45.588Z,72.35
2022-09-11T04:37:16.537Z,71.73
2022-09-11T04:39:48.457Z,72.14
2022-09-11T04:42:19.112Z,71.23
2022-09-11T04:44:51.065Z,71.05
2022-09-11T04:47:21.958Z,71.44
2022-09-11T04:49:53.382Z,71.33
2022-09-11T04:52:26.011Z,71.12
2022-09-11T04:54:56.874Z,71.13
2022-09-11T04:57:27.705Z,69.98
2022-09-11T04:59:58.850Z,69.33
2022-09-11T05:02:29.809Z,69.60
2022-09-11T05:05:01.636Z,69.84
2022-09-11T05:07:32.495Z,70.37
2022-09-11T05:10:07.146Z,70.53
2022-09-11T05:12:38.135Z,70.67
2022-09-11T05:15:13.348Z,70.25
2022-09-11T05:17:46.927Z,70.84
2022-09-11T05:20:19.343Z,71.07
2022-09-11T05:22:50.543Z,71.34
2022-09-11T05:25:21.598Z,70.06
2022-09-11T05:27:52.940Z,70.01
2022-09-11T05:30:23.764Z,70.49
2022-09-11T05:32:58.274Z,70.58
2022-09-11T05:35:32.380Z,70.10
2022-09-11T05:38:04.092Z,69.92
2022-09-11T05:40:35.070Z,69.66
2022-09-11T05:43:06.189Z,69.96
2022-09-11T05:45:37.233Z,69.31
2022-09-11T05:48:07.842Z,68.87
2022-09-11T05:50:41.565Z,67.81
2022-09-11T05:53:12.480Z,68.37
2022-09-11T05:55:44.101Z,68.88
2022-09-11T05:58:15.024Z,67.64
2022-09-11T06:00:49.096Z,68.70
2022-09-11T06:03:24.237Z,68.77
2022-09-11T06:05:56.571Z,69.06
2022-09-11T06:08:27.961Z,67.86
2022-09-11T06:11:00.881Z,67.87
2022-09-11T06:13:39.552Z,68.93
2022-09-11T06:16:18.570Z,69.29
2022-09-11T06:18:54.127Z,69.31
2022-09-11T06:21:27.177Z,69.57
2022-09-11T06:24:08.165Z,69.20
2022-09-11T06:26:39.419Z,69.11
2022-09-11T06:29:17.074Z,69.85
2022-09-11T06:31:53.882Z,69.61
2022-09-11T06:34:28.073Z,69.14
2022-09-11T06:37:01.835Z,69.18
2022-09-11T06:39:32.796Z,69.78
2022-09-11T06:42:05.549Z,69.62
2022-09-11T06:44:40.075Z,69.17
2022-09-11T06:47:11.079Z,69.36
2022-09-11T06:49:41.584Z,69.70
2022-09-11T06:52:37.858Z,69.53
2022-09-11T06:55:17.190Z,69.53
2022-09-11T06:57:56.455Z,69.84
2022-09-11T07:00:30.296Z,69.94
2022-09-11T07:03:00.959Z,70.52
2022-09-11T07:05:32.478Z,70.74
2022-09-11T07:08:05.131Z,70.34
2022-09-11T07:10:38.958Z,70.39
2022-09-11T07:13:10.124Z,70.74
2022-09-11T07:15:42.667Z,70.62
2022-09-11T07:18:14.087Z,70.06
2022-09-11T07:20:44.979Z,69.87
2022-09-11T07:23:17.437Z,69.42
2022-09-11T07:25:48.786Z,69.54
2022-09-11T07:28:20.209Z,69.59
2022-09-11T07:30:52.817Z,69.70
2022-09-11T07:33:25.766Z,69.08
2022-09-11T07:35:58.231Z,68.76
2022-09-11T07:38:28.823Z,68.85
2022-09-11T07:40:59.946Z,68.61
2022-09-11T07:43:30.859Z,68.72
2022-09-11T07:46:01.963Z,68.66
2022-09-11T07:48:34.226Z,68.63
2022-09-11T07:51:07.941Z,68.38
2022-09-11T07:53:49.557Z,68.80
2022-09-11T07:56:26.741Z,68.84
2022-09-11T07:58:59.314Z,68.90
2022-09-11T08:01:32.825Z,68.71
2022-09-11T08:04:10.478Z,69.10
2022-09-11T08:06:41.882Z,68.78
2022-09-11T08:09:19.930Z,68.85
2022-09-11T08:12:01.277Z,68.46
2022-09-11T08:14:34.933Z,68.45
2022-09-11T08:17:14.374Z,68.88
2022-09-11T08:19:45.679Z,68.87
2022-09-11T08:22:18.900Z,69.20
2022-09-11T08:24:51.350Z,68.66
2022-09-11T08:27:23.197Z,68.49
2022-09-11T08:29:54.042Z,68.43
2022-09-11T08:32:25.588Z,68.49
2022-09-11T08:34:56.637Z,68.63
2022-09-11T08:37:27.702Z,69.31
2022-09-11T08:39:58.884Z,69.04
2022-09-11T08:42:29.946Z,68.74
2022-09-11T08:45:03.504Z,68.75
2022-09-11T08:47:44.185Z,68.03
2022-09-11T08:50:39.178Z,68.10
2022-09-11T08:53:19.997Z,68.90
2022-09-11T08:56:06.428Z,68.96
2022-09-11T08:59:11.863Z,68.54
2022-09-11T09:01:57.144Z,67.90
2022-09-11T09:05:03.536Z,67.80
2022-09-11T09:07:57.055Z,68.78
2022-09-11T09:10:32.053Z,68.34
2022-09-11T09:13:08.898Z,69.39
2022-09-11T09:15:47.991Z,69.03
2022-09-11T09:18:41.942Z,68.92
2022-09-11T09:21:13.355Z,68.72
2022-09-11T09:23:57.564Z,68.77
2022-09-11T09:26:43.288Z,68.93
2022-09-11T09:29:30.651Z,69.20
2022-09-11T09:32:10.418Z,69.47
2022-09-11T09:34:46.381Z,68.73
2022-09-11T09:37:23.217Z,68.64
2022-09-11T09:39:55.471Z,68.23
2022-09-11T09:42:47.978Z,68.29
2022-09-11T09:45:41.045Z,67.81
2022-09-11T09:48:14.746Z,68.51
2022-09-11T09:50:49.417Z,68.80
2022-09-11T09:53:32.553Z,68.76
2022-09-11T09:56:05.216Z,68.00
2022-09-11T09:58:42.613Z,68.18
2022-09-11T10:01:42.861Z,68.57
2022-09-11T10:04:19.456Z,68.51
2022-09-11T10:06:55.399Z,68.56
2022-09-11T10:09:30.806Z,68.85
2022-09-11T10:12:18.813Z,68.80
2022-09-11T10:15:06.655Z,68.69
2022-09-11T10:17:40.595Z,68.62
2022-09-11T10:20:25.681Z,68.71
2022-09-11T10:22:58.846Z,67.97
2022-09-11T10:25:32.687Z,68.79
2022-09-11T10:28:08.710Z,69.14
2022-09-11T10:30:44.005Z,69.52
2022-09-11T10:33:33.675Z,69.04
2022-09-11T10:36:08.519Z,69.22
2022-09-11T10:38:48.340Z,69.62
2022-09-11T10:41:29.096Z,70.01
2022-09-11T10:44:19.064Z,70.08
2022-09-11T10:47:25.629Z,70.31
2022-09-11T10:50:20.578Z,70.61
2022-09-11T10:53:01.562Z,70.45
2022-09-11T10:55:46.687Z,70.13
2022-09-11T10:58:22.831Z,70.34
2022-09-11T11:00:56.251Z,70.71
2022-09-11T11:03:31.054Z,70.11
2022-09-11T11:06:17.302Z,70.20
2022-09-11T11:09:01.708Z,71.33
2022-09-11T11:11:54.698Z,71.20
2022-09-11T11:14:52.768Z,70.92
2022-09-11T11:17:38.991Z,71.48
2022-09-11T11:20:28.218Z,72.31
2022-09-11T11:23:16.265Z,72.11
2022-09-11T11:26:16.530Z,72.56
2022-09-11T11:29:12.382Z,72.20
2022-09-11T11:32:04.260Z,72.17
2022-09-11T11:35:05.808Z,72.40
2022-09-11T11:37:46.043Z,72.92
2022-09-11T11:40:46.621Z,72.95
2022-09-11T11:43:20.620Z,72.96
2022-09-11T11:46:00.651Z,73.20
2022-09-11T11:48:39.247Z,72.61
2022-09-11T11:51:14.485Z,72.29
2022-09-11T11:54:10.750Z,72.62
2022-09-11T11:56:51.882Z,72.50
2022-09-11T11:59:53.522Z,72.09
2022-09-11T12:02:27.800Z,72.17
2022-09-11T12:05:08.539Z,71.44
2022-09-11T12:07:42.002Z,72.20
2022-09-11T12:10:24.976Z,71.84
2022-09-11T12:13:10.062Z,71.81
2022-09-11T12:15:41.297Z,71.36
2022-09-11T12:18:14.556Z,71.11
2022-09-11T12:20:47.820Z,71.39
2022-09-11T12:23:34.004Z,70.90
2022-09-11T12:26:13.943Z,70.72
2022-09-11T12:28:45.097Z,70.64
2022-09-11T12:31:18.738Z,70.89
2022-09-11T12:33:56.988Z,70.70
2022-09-11T12:36:49.441Z,70.72
2022-09-11T12:39:30.142Z,70.49
2022-09-11T12:42:31.319Z,70.38
2022-09-11T12:45:02.971Z,70.43
2022-09-11T12:47:38.900Z,70.63
2022-09-11T12:50:16.714Z,70.74
2022-09-11T12:53:00.714Z,70.70
2022-09-11T12:55:57.155Z,71.59
2022-09-11T12:58:31.340Z,71.29
2022-09-11T13:01:16.080Z,71.43
2022-09-11T13:04:05.073Z,71.07
2022-09-11T13:06:50.487Z,71.71
2022-09-11T13:09:31.827Z,72.22
2022-09-11T13:12:44.396Z,72.56
2022-09-11T13:15:43.796Z,72.47
2022-09-11T13:18:46.575Z,72.51
2022-09-11T13:21:24.437Z,72.82
2022-09-11T13:23:57.417Z,72.72
2022-09-11T13:26:34.021Z,72.72
2022-09-11T13:29:05.223Z,72.97
2022-09-11T13:31:37.681Z,72.72
2022-09-11T13:34:16.740Z,73.00
2022-09-11T13:36:52.404Z,73.28
2022-09-11T13:39:32.859Z,73.05
2022-09-11T13:42:05.906Z,72.82
2022-09-11T13:44:59.996Z,73.45
2022-09-11T13:47:34.843Z,73.14
2022-09-11T13:50:09.729Z,73.58
2022-09-11T13:52:41.026Z,73.88
2022-09-11T13:55:22.000Z,73.50
2022-09-11T13:58:03.571Z,73.94
2022-09-11T14:00:49.416Z,74.32
2022-09-11T14:03:36.788Z,74.13
2022-09-11T14:06:21.774Z,74.13
2022-09-11T14:08:59.082Z,74.13
2022-09-11T14:11:34.684Z,74.34
2022-09-11T14:14:16.903Z,74.47
2022-09-11T14:16:53.821Z,74.72
2022-09-11T14:19:33.137Z,74.67
2022-09-11T14:22:16.874Z,74.62
2022-09-11T14:25:05.633Z,74.61
2022-09-11T14:27:40.878Z,74.69
2022-09-11T14:30:47.880Z,74.51
2022-09-11T14:33:20.553Z,74.56
2022-09-11T14:35:52.966Z,74.94
2022-09-11T14:38:26.605Z,74.67
2022-09-11T14:41:04.975Z,74.65
2022-09-11T14:43:38.129Z,74.80
2022-09-11T14:46:09.395Z,74.67
2022-09-11T14:48:39.911Z,74.65
2022-09-11T14:51:13.529Z,74.85
2022-09-11T14:53:45.950Z,74.98
2022-09-11T14:56:16.983Z,75.26
2022-09-11T14:58:47.839Z,75.16
2022-09-11T15:01:18.783Z,75.38
2022-09-11T15:03:49.564Z,75.41
2022-09-11T15:06:23.301Z,75.34
2022-09-11T15:08:54.881Z,75.70
2022-09-11T15:11:25.671Z,75.81
2022-09-11T15:14:15.950Z,75.99
2022-09-11T15:16:49.878Z,76.25
2022-09-11T15:19:20.284Z,76.35
2022-09-11T15:21:51.051Z,76.21
2022-09-11T15:24:22.014Z,76.10
2022-09-11T15:26:55.318Z,76.40
2022-09-11T15:29:31.359Z,76.29
2022-09-11T15:32:04.593Z,76.40
2022-09-11T15:34:36.191Z,76.46
2022-09-11T15:37:07.421Z,76.41
2022-09-11T15:39:38.370Z,76.28
2022-09-11T15:42:10.209Z,76.64
2022-09-11T15:44:41.246Z,76.69
2022-09-11T15:47:14.226Z,76.79
2022-09-11T15:49:50.573Z,76.92
2022-09-11T15:52:22.222Z,77.07
2022-09-11T15:54:53.672Z,76.92
2022-09-11T15:57:24.234Z,77.29
2022-09-11T15:59:55.167Z,76.91
2022-09-11T16:02:26.677Z,77.14
2022-09-11T16:04:57.408Z,77.26
2022-09-11T16:07:28.262Z,76.96
2022-09-11T16:09:59.131Z,77.21
2022-09-11T16:12:29.951Z,77.25
2022-09-11T16:15:00.844Z,77.29
2022-09-11T16:17:35.020Z,77.30
2022-09-11T16:20:05.934Z,77.61
2022-09-11T16:22:37.314Z,77.57
2022-09-11T16:25:08.607Z,77.75
2022-09-11T16:27:39.334Z,77.73
2022-09-11T16:33:01.385Z,76.88
2022-09-11T16:35:33.256Z,76.40
2022-09-11T16:38:04.133Z,76.44
2022-09-11T16:40:34.939Z,75.77
2022-09-11T16:43:07.814Z,75.82
2022-09-11T16:45:39.560Z,75.59
2022-09-11T16:48:10.591Z,75.01
2022-09-11T16:50:41.299Z,75.26
2022-09-11T16:53:13.257Z,75.20
2022-09-11T16:55:45.302Z,75.00
2022-09-11T16:58:16.972Z,75.11
2022-09-11T17:00:48.151Z,75.07
2022-09-11T17:03:20.217Z,75.84
2022-09-11T17:05:53.401Z,76.39
2022-09-11T17:08:24.900Z,76.88
2022-09-11T17:11:00.539Z,76.77
2022-09-11T17:13:31.961Z,76.82
2022-09-11T17:16:12.615Z,77.03
2022-09-11T17:18:52.474Z,76.75
2022-09-11T17:21:25.623Z,76.79
2022-09-11T17:23:58.699Z,76.58
2022-09-11T17:26:29.572Z,76.78
2022-09-11T17:29:05.178Z,76.68
2022-09-11T17:31:36.216Z,76.83
2022-09-11T17:34:07.199Z,77.07
2022-09-11T17:36:38.319Z,76.83
2022-09-11T17:39:09.989Z,76.90
2022-09-11T17:41:40.741Z,76.74
2022-09-11T17:44:11.669Z,76.95
2022-09-11T17:46:42.561Z,76.99
2022-09-11T17:49:13.428Z,76.88
2022-09-11T17:51:44.194Z,76.67
2022-09-11T17:54:15.202Z,76.78
2022-09-11T17:56:46.089Z,76.64
2022-09-11T17:59:16.819Z,76.83
2022-09-11T18:01:47.617Z,76.71
2022-09-11T18:04:21.061Z,76.97
2022-09-11T18:06:52.153Z,77.02
2022-09-11T18:09:23.203Z,76.93
2022-09-11T18:11:56.652Z,76.93
2022-09-11T18:14:28.654Z,76.88
2022-09-11T18:16:59.858Z,76.66
2022-09-11T18:19:31.032Z,76.69
2022-09-11T18:22:02.321Z,76.95
2022-09-11T18:24:33.009Z,76.60
2022-09-11T18:27:03.900Z,76.62
2022-09-11T18:29:35.435Z,76.71
2022-09-11T18:32:06.322Z,76.43
2022-09-11T18:34:37.084Z,76.77
2022-09-11T18:37:07.992Z,76.14
2022-09-11T18:39:38.708Z,76.02
2022-09-11T18:42:09.814Z,76.28
2022-09-11T18:44:40.694Z,76.11
2022-09-11T18:47:12.151Z,76.45
2022-09-11T18:49:43.079Z,76.33
2022-09-11T18:52:15.324Z,76.25
2022-09-11T18:54:46.092Z,75.94
2022-09-11T18:57:20.741Z,76.21
2022-09-11T18:59:54.539Z,75.98
2022-09-11T19:02:25.507Z,76.03
2022-09-11T19:04:56.382Z,76.10
2022-09-11T19:07:27.310Z,76.19
2022-09-11T19:10:00.161Z,76.16
2022-09-11T19:12:31.296Z,77.20
2022-09-11T19:15:02.259Z,77.37
2022-09-11T19:17:32.974Z,77.17
2022-09-11T19:20:03.894Z,77.34
2022-09-11T19:22:34.776Z,77.58
2022-09-11T19:25:06.187Z,77.66
2022-09-11T19:27:39.087Z,77.13
2022-09-11T19:30:11.486Z,77.79
2022-09-11T19:32:42.520Z,77.33
2022-09-11T19:35:13.534Z,77.49
2022-09-11T19:37:44.892Z,77.57
2022-09-11T19:40:16.808Z,77.62
2022-09-11T19:42:47.477Z,77.69
2022-09-11T19:45:18.394Z,77.60
2022-09-11T19:47:50.009Z,77.72
2022-09-11T19:50:24.581Z,77.76
2022-09-11T19:52:55.472Z,77.46
2022-09-11T19:55:26.229Z,78.03
2022-09-11T19:57:57.758Z,78.07
2022-09-11T20:00:28.568Z,78.22
2022-09-11T20:03:00.419Z,78.08
2022-09-11T20:05:31.662Z,77.86
2022-09-11T20:08:02.464Z,78.11
2022-09-11T20:10:33.226Z,78.04
2022-09-11T20:13:03.854Z,78.01
2022-09-11T20:15:37.600Z,78.31
2022-09-11T20:18:12.259Z,78.24
2022-09-11T20:20:45.463Z,78.24
2022-09-11T20:23:16.384Z,78.01
2022-09-11T20:25:47.167Z,77.96
2022-09-11T20:28:18.728Z,78.25
2022-09-11T20:30:50.288Z,78.21
2022-09-11T20:33:20.619Z,77.95
2022-09-11T20:35:51.585Z,78.22
2022-09-11T20:38:22.447Z,78.00
2022-09-11T20:40:53.505Z,77.79
2022-09-11T20:43:24.429Z,78.08
2022-09-11T20:45:57.248Z,78.18
2022-09-11T20:48:28.077Z,78.15
2022-09-11T20:51:04.115Z,78.12
2022-09-11T20:53:34.988Z,77.98
2022-09-11T20:56:13.964Z,78.17
2022-09-11T20:58:45.525Z,78.25
2022-09-11T21:01:19.732Z,78.51
2022-09-11T21:03:53.262Z,78.50
2022-09-11T21:06:26.532Z,78.69
2022-09-11T21:08:59.378Z,78.83
2022-09-11T21:11:32.231Z,78.68
2022-09-11T21:14:03.420Z,78.98
2022-09-11T21:16:33.962Z,79.03
2022-09-11T21:19:09.921Z,78.99
2022-09-11T21:21:40.848Z,78.70
2022-09-11T21:24:17.018Z,79.28
2022-09-11T21:26:47.954Z,78.98
2022-09-11T21:29:18.767Z,79.44
2022-09-11T21:31:49.536Z,79.25
2022-09-11T21:34:20.457Z,79.24
2022-09-11T21:36:51.325Z,79.06
2022-09-11T21:39:22.122Z,78.82
2022-09-11T21:41:52.840Z,79.08
2022-09-11T21:44:24.470Z,79.13
2022-09-11T21:46:55.363Z,78.68
2022-09-11T21:49:26.149Z,78.48
2022-09-11T21:51:56.830Z,78.45
2022-09-11T21:54:31.740Z,78.88
2022-09-11T21:57:02.639Z,78.93
2022-09-11T21:59:33.936Z,78.86
2022-09-11T22:02:04.782Z,78.92
2022-09-11T22:04:35.828Z,78.91
2022-09-11T22:07:07.511Z,78.79
2022-09-11T22:09:38.452Z,78.82
2022-09-11T22:12:09.531Z,78.94
2022-09-11T22:14:40.630Z,78.94
2022-09-11T22:17:11.498Z,79.66
2022-09-11T22:19:42.319Z,79.61
2022-09-11T22:22:13.165Z,79.30
2022-09-11T22:24:44.245Z,79.16
2022-09-11T22:27:15.411Z,79.43
2022-09-11T22:29:47.101Z,79.72
2022-09-11T22:32:18.023Z,79.59
2022-09-11T22:34:48.889Z,79.58
2022-09-11T22:37:19.893Z,79.61
2022-09-11T22:39:50.777Z,79.49
2022-09-11T22:42:21.563Z,79.47
2022-09-11T22:44:53.780Z,79.46
2022-09-11T22:47:24.880Z,79.81
2022-09-11T22:51:30.740Z,79.63
2022-09-11T22:54:01.838Z,79.69
2022-09-11T22:56:32.889Z,79.89
2022-09-11T22:59:03.650Z,79.84
2022-09-11T23:01:34.652Z,79.95
2022-09-11T23:04:06.512Z,80.19
2022-09-11T23:06:55.805Z,80.42
2022-09-11T23:09:26.655Z,80.97
2022-09-11T23:11:58.292Z,80.78
2022-09-11T23:14:29.116Z,80.78
2022-09-11T23:16:59.825Z,80.89
2022-09-11T23:19:31.481Z,80.65
2022-09-11T23:22:02.938Z,80.76
2022-09-11T23:24:33.920Z,80.74
2022-09-11T23:27:04.800Z,80.83
2022-09-11T23:29:35.816Z,80.85
2022-09-11T23:32:06.907Z,80.76
2022-09-11T23:34:38.086Z,80.73
2022-09-11T23:37:08.838Z,80.63
2022-09-11T23:39:39.825Z,80.66
2022-09-11T23:42:10.576Z,80.95
2022-09-11T23:44:41.264Z,80.52
2022-09-11T23:47:12.191Z,80.59
2022-09-11T23:49:43.776Z,80.33
2022-09-11T23:52:14.606Z,80.48
2022-09-11T23:54:45.517Z,80.39
2022-09-11T23:57:16.589Z,80.80
2022-09-11T23:59:56.565Z,80.75
